sensor_id;sensor_type;location;lat;lon;timestamp;P1;durP1;ratioP1;P2;durP2;ratioP2
33266;SDS011;19638;49.080;11.896;2023-05-07T00:03:40;5.80;;;4.45;;
33266;SDS011;19638;49.080;11.896;2023-05-07T00:07:47;7.22;;;4.22;;
33266;SDS011;19638;49.080;11.896;2023-05-07T00:11:54;6.47;;;4.35;;
33266;SDS011;19638;49.080;11.896;2023-05-07T00:15:57;6.20;;;4.70;;
33266;SDS011;19638;49.080;11.896;2023-05-07T00:20:02;9.43;;;4.40;;
33266;SDS011;19638;49.080;11.896;2023-05-07T00:24:10;5.83;;;3.87;;
33266;SDS011;19638;49.080;11.896;2023-05-07T00:28:13;6.30;;;5.00;;
33266;SDS011;19638;49.080;11.896;2023-05-07T00:32:20;9.02;;;4.95;;
33266;SDS011;19638;49.080;11.896;2023-05-07T00:36:29;5.00;;;4.45;;
33266;SDS011;19638;49.080;11.896;2023-05-07T00:40:32;6.05;;;4.93;;
33266;SDS011;19638;49.080;11.896;2023-05-07T00:44:39;6.57;;;4.53;;
33266;SDS011;19638;49.080;11.896;2023-05-07T00:48:43;8.67;;;5.10;;
33266;SDS011;19638;49.080;11.896;2023-05-07T00:52:51;6.35;;;5.05;;
33266;SDS011;19638;49.080;11.896;2023-05-07T00:56:55;10.27;;;6.32;;
33266;SDS011;19638;49.080;11.896;2023-05-07T01:00:59;10.30;;;6.47;;
33266;SDS011;19638;49.080;11.896;2023-05-07T01:05:03;11.93;;;6.40;;
33266;SDS011;19638;49.080;11.896;2023-05-07T01:09:12;10.73;;;6.72;;
33266;SDS011;19638;49.080;11.896;2023-05-07T01:13:18;7.50;;;5.78;;
33266;SDS011;19638;49.080;11.896;2023-05-07T01:17:27;7.22;;;5.38;;
33266;SDS011;19638;49.080;11.896;2023-05-07T01:21:32;9.07;;;6.13;;
33266;SDS011;19638;49.080;11.896;2023-05-07T01:25:39;7.15;;;5.22;;
33266;SDS011;19638;49.080;11.896;2023-05-07T01:29:42;7.03;;;5.20;;
33266;SDS011;19638;49.080;11.896;2023-05-07T01:33:45;9.35;;;6.63;;
33266;SDS011;19638;49.080;11.896;2023-05-07T01:37:50;12.65;;;6.88;;
33266;SDS011;19638;49.080;11.896;2023-05-07T01:41:56;7.88;;;6.38;;
33266;SDS011;19638;49.080;11.896;2023-05-07T01:45:59;9.10;;;6.55;;
33266;SDS011;19638;49.080;11.896;2023-05-07T01:50:07;7.32;;;6.25;;
33266;SDS011;19638;49.080;11.896;2023-05-07T01:54:19;8.60;;;6.38;;
33266;SDS011;19638;49.080;11.896;2023-05-07T02:03:37;19.25;;;7.70;;
33266;SDS011;19638;49.080;11.896;2023-05-07T02:07:47;10.32;;;6.43;;
33266;SDS011;19638;49.080;11.896;2023-05-07T02:11:59;9.30;;;6.88;;
33266;SDS011;19638;49.080;11.896;2023-05-07T02:16:08;10.63;;;7.03;;
33266;SDS011;19638;49.080;11.896;2023-05-07T02:20:19;8.70;;;6.55;;
33266;SDS011;19638;49.080;11.896;2023-05-07T02:24:25;9.65;;;6.70;;
33266;SDS011;19638;49.080;11.896;2023-05-07T02:28:31;9.65;;;7.00;;
33266;SDS011;19638;49.080;11.896;2023-05-07T02:32:37;11.32;;;7.22;;
33266;SDS011;19638;49.080;11.896;2023-05-07T02:36:46;9.13;;;7.63;;
33266;SDS011;19638;49.080;11.896;2023-05-07T02:40:54;12.63;;;7.82;;
33266;SDS011;19638;49.080;11.896;2023-05-07T02:45:05;10.23;;;7.30;;
33266;SDS011;19638;49.080;11.896;2023-05-07T02:49:08;12.52;;;7.65;;
33266;SDS011;19638;49.080;11.896;2023-05-07T02:53:15;10.57;;;7.93;;
33266;SDS011;19638;49.080;11.896;2023-05-07T02:57:18;11.20;;;7.65;;
33266;SDS011;19638;49.080;11.896;2023-05-07T03:01:22;11.23;;;7.93;;
33266;SDS011;19638;49.080;11.896;2023-05-07T03:05:26;11.13;;;8.27;;
33266;SDS011;19638;49.080;11.896;2023-05-07T03:09:30;10.85;;;8.82;;
33266;SDS011;19638;49.080;11.896;2023-05-07T03:13:33;13.63;;;8.88;;
33266;SDS011;19638;49.080;11.896;2023-05-07T03:17:37;13.43;;;8.77;;
33266;SDS011;19638;49.080;11.896;2023-05-07T03:21:41;11.65;;;8.63;;
33266;SDS011;19638;49.080;11.896;2023-05-07T03:25:46;12.68;;;9.00;;
33266;SDS011;19638;49.080;11.896;2023-05-07T03:29:52;12.43;;;8.50;;
33266;SDS011;19638;49.080;11.896;2023-05-07T03:33:56;12.27;;;8.90;;
33266;SDS011;19638;49.080;11.896;2023-05-07T03:37:59;18.75;;;9.18;;
33266;SDS011;19638;49.080;11.896;2023-05-07T03:42:05;15.68;;;10.20;;
33266;SDS011;19638;49.080;11.896;2023-05-07T03:46:08;14.50;;;9.63;;
33266;SDS011;19638;49.080;11.896;2023-05-07T03:50:14;13.85;;;9.75;;
33266;SDS011;19638;49.080;11.896;2023-05-07T03:54:17;14.43;;;10.00;;
33266;SDS011;19638;49.080;11.896;2023-05-07T03:58:23;14.88;;;10.23;;
33266;SDS011;19638;49.080;11.896;2023-05-07T04:02:29;15.75;;;10.30;;
33266;SDS011;19638;49.080;11.896;2023-05-07T04:06:35;13.93;;;10.30;;
33266;SDS011;19638;49.080;11.896;2023-05-07T04:10:38;13.60;;;9.70;;
33266;SDS011;19638;49.080;11.896;2023-05-07T04:14:46;14.82;;;9.88;;
33266;SDS011;19638;49.080;11.896;2023-05-07T04:18:49;13.63;;;10.30;;
33266;SDS011;19638;49.080;11.896;2023-05-07T04:22:54;15.82;;;10.35;;
33266;SDS011;19638;49.080;11.896;2023-05-07T04:26:59;13.60;;;10.30;;
33266;SDS011;19638;49.080;11.896;2023-05-07T04:31:04;17.20;;;10.88;;
33266;SDS011;19638;49.080;11.896;2023-05-07T04:35:10;19.90;;;10.50;;
33266;SDS011;19638;49.080;11.896;2023-05-07T04:39:13;17.13;;;10.50;;
33266;SDS011;19638;49.080;11.896;2023-05-07T04:43:16;13.65;;;9.85;;
33266;SDS011;19638;49.080;11.896;2023-05-07T04:47:23;15.00;;;10.13;;
33266;SDS011;19638;49.080;11.896;2023-05-07T04:51:26;13.73;;;9.05;;
33266;SDS011;19638;49.080;11.896;2023-05-07T04:55:34;17.27;;;9.93;;
33266;SDS011;19638;49.080;11.896;2023-05-07T04:59:37;14.38;;;9.77;;
33266;SDS011;19638;49.080;11.896;2023-05-07T05:03:41;13.20;;;9.73;;
33266;SDS011;19638;49.080;11.896;2023-05-07T05:07:47;12.38;;;9.02;;
33266;SDS011;19638;49.080;11.896;2023-05-07T05:11:50;13.25;;;9.55;;
33266;SDS011;19638;49.080;11.896;2023-05-07T05:15:53;14.38;;;9.55;;
33266;SDS011;19638;49.080;11.896;2023-05-07T05:20:00;12.93;;;9.43;;
33266;SDS011;19638;49.080;11.896;2023-05-07T05:24:03;12.80;;;9.05;;
33266;SDS011;19638;49.080;11.896;2023-05-07T05:28:11;14.95;;;9.32;;
33266;SDS011;19638;49.080;11.896;2023-05-07T05:32:17;12.55;;;9.05;;
33266;SDS011;19638;49.080;11.896;2023-05-07T05:36:23;11.75;;;8.38;;
33266;SDS011;19638;49.080;11.896;2023-05-07T05:40:27;14.80;;;9.70;;
33266;SDS011;19638;49.080;11.896;2023-05-07T05:44:34;12.95;;;9.40;;
33266;SDS011;19638;49.080;11.896;2023-05-07T05:48:37;12.85;;;9.50;;
33266;SDS011;19638;49.080;11.896;2023-05-07T05:52:43;15.98;;;9.45;;
33266;SDS011;19638;49.080;11.896;2023-05-07T05:56:46;15.10;;;9.80;;
33266;SDS011;19638;49.080;11.896;2023-05-07T06:00:49;13.32;;;8.57;;
33266;SDS011;19638;49.080;11.896;2023-05-07T06:04:57;14.23;;;9.43;;
33266;SDS011;19638;49.080;11.896;2023-05-07T06:09:02;14.02;;;9.00;;
33266;SDS011;19638;49.080;11.896;2023-05-07T06:13:11;15.55;;;8.18;;
33266;SDS011;19638;49.080;11.896;2023-05-07T06:17:14;13.77;;;9.02;;
33266;SDS011;19638;49.080;11.896;2023-05-07T06:21:22;10.73;;;8.43;;
33266;SDS011;19638;49.080;11.896;2023-05-07T06:25:26;17.42;;;8.95;;
33266;SDS011;19638;49.080;11.896;2023-05-07T06:29:30;12.82;;;8.63;;
33266;SDS011;19638;49.080;11.896;2023-05-07T06:33:35;10.30;;;8.35;;
33266;SDS011;19638;49.080;11.896;2023-05-07T06:37:41;11.48;;;8.63;;
33266;SDS011;19638;49.080;11.896;2023-05-07T06:41:46;10.40;;;7.75;;
33266;SDS011;19638;49.080;11.896;2023-05-07T06:45:49;13.15;;;8.90;;
33266;SDS011;19638;49.080;11.896;2023-05-07T06:49:57;11.23;;;8.63;;
33266;SDS011;19638;49.080;11.896;2023-05-07T06:54:00;14.05;;;9.15;;
33266;SDS011;19638;49.080;11.896;2023-05-07T06:58:06;11.77;;;8.43;;
33266;SDS011;19638;49.080;11.896;2023-05-07T07:02:15;12.00;;;8.35;;
33266;SDS011;19638;49.080;11.896;2023-05-07T07:06:20;11.43;;;8.80;;
33266;SDS011;19638;49.080;11.896;2023-05-07T07:10:24;12.18;;;8.68;;
33266;SDS011;19638;49.080;11.896;2023-05-07T07:14:29;15.55;;;8.60;;
33266;SDS011;19638;49.080;11.896;2023-05-07T07:18:33;11.13;;;7.93;;
33266;SDS011;19638;49.080;11.896;2023-05-07T07:22:37;13.98;;;8.40;;
33266;SDS011;19638;49.080;11.896;2023-05-07T07:26:40;13.88;;;7.85;;
33266;SDS011;19638;49.080;11.896;2023-05-07T07:30:45;10.32;;;7.82;;
33266;SDS011;19638;49.080;11.896;2023-05-07T07:34:48;14.05;;;8.57;;
33266;SDS011;19638;49.080;11.896;2023-05-07T07:38:52;14.25;;;7.50;;
33266;SDS011;19638;49.080;11.896;2023-05-07T07:42:56;10.13;;;7.97;;
33266;SDS011;19638;49.080;11.896;2023-05-07T07:47:01;10.88;;;8.00;;
33266;SDS011;19638;49.080;11.896;2023-05-07T07:51:09;12.75;;;8.23;;
33266;SDS011;19638;49.080;11.896;2023-05-07T07:55:15;15.05;;;8.52;;
33266;SDS011;19638;49.080;11.896;2023-05-07T07:59:22;12.75;;;8.88;;
33266;SDS011;19638;49.080;11.896;2023-05-07T08:03:27;11.18;;;7.90;;
33266;SDS011;19638;49.080;11.896;2023-05-07T08:07:33;12.05;;;7.65;;
33266;SDS011;19638;49.080;11.896;2023-05-07T08:11:36;13.20;;;8.15;;
33266;SDS011;19638;49.080;11.896;2023-05-07T08:15:39;9.40;;;7.72;;
33266;SDS011;19638;49.080;11.896;2023-05-07T08:19:44;12.88;;;8.55;;
33266;SDS011;19638;49.080;11.896;2023-05-07T08:23:52;13.02;;;7.55;;
33266;SDS011;19638;49.080;11.896;2023-05-07T08:27:55;14.52;;;7.15;;
33266;SDS011;19638;49.080;11.896;2023-05-07T08:31:59;7.53;;;6.70;;
33266;SDS011;19638;49.080;11.896;2023-05-07T08:36:04;9.65;;;7.20;;
33266;SDS011;19638;49.080;11.896;2023-05-07T08:40:08;7.72;;;6.18;;
33266;SDS011;19638;49.080;11.896;2023-05-07T08:44:15;10.70;;;7.10;;
33266;SDS011;19638;49.080;11.896;2023-05-07T08:48:23;8.02;;;6.82;;
33266;SDS011;19638;49.080;11.896;2023-05-07T08:52:33;10.02;;;6.90;;
33266;SDS011;19638;49.080;11.896;2023-05-07T08:56:38;7.95;;;6.45;;
33266;SDS011;19638;49.080;11.896;2023-05-07T09:00:44;10.93;;;5.90;;
33266;SDS011;19638;49.080;11.896;2023-05-07T09:04:51;7.57;;;6.30;;
33266;SDS011;19638;49.080;11.896;2023-05-07T09:08:58;10.50;;;6.53;;
33266;SDS011;19638;49.080;11.896;2023-05-07T09:13:02;7.38;;;5.60;;
33266;SDS011;19638;49.080;11.896;2023-05-07T09:17:06;7.55;;;6.47;;
33266;SDS011;19638;49.080;11.896;2023-05-07T09:21:17;10.25;;;6.10;;
33266;SDS011;19638;49.080;11.896;2023-05-07T09:25:28;7.82;;;6.38;;
33266;SDS011;19638;49.080;11.896;2023-05-07T09:29:32;7.72;;;5.45;;
33266;SDS011;19638;49.080;11.896;2023-05-07T09:33:36;9.15;;;6.53;;
33266;SDS011;19638;49.080;11.896;2023-05-07T09:37:40;6.13;;;5.53;;
33266;SDS011;19638;49.080;11.896;2023-05-07T09:41:45;6.75;;;5.80;;
33266;SDS011;19638;49.080;11.896;2023-05-07T09:45:50;6.55;;;5.75;;
33266;SDS011;19638;49.080;11.896;2023-05-07T09:49:55;5.95;;;5.35;;
33266;SDS011;19638;49.080;11.896;2023-05-07T09:54:03;8.55;;;5.28;;
33266;SDS011;19638;49.080;11.896;2023-05-07T09:58:11;6.88;;;5.75;;
33266;SDS011;19638;49.080;11.896;2023-05-07T10:02:16;6.68;;;5.97;;
33266;SDS011;19638;49.080;11.896;2023-05-07T10:06:21;6.82;;;6.03;;
33266;SDS011;19638;49.080;11.896;2023-05-07T10:10:27;7.72;;;5.20;;
33266;SDS011;19638;49.080;11.896;2023-05-07T10:14:34;8.10;;;5.22;;
33266;SDS011;19638;49.080;11.896;2023-05-07T10:18:40;9.57;;;5.82;;
33266;SDS011;19638;49.080;11.896;2023-05-07T10:22:45;7.85;;;6.38;;
33266;SDS011;19638;49.080;11.896;2023-05-07T10:26:50;8.45;;;5.63;;
33266;SDS011;19638;49.080;11.896;2023-05-07T10:30:58;7.55;;;5.40;;
33266;SDS011;19638;49.080;11.896;2023-05-07T10:35:14;6.47;;;5.78;;
33266;SDS011;19638;49.080;11.896;2023-05-07T10:39:22;5.88;;;5.28;;
33266;SDS011;19638;49.080;11.896;2023-05-07T10:43:37;6.07;;;4.88;;
33266;SDS011;19638;49.080;11.896;2023-05-07T10:52:29;8.57;;;5.00;;
33266;SDS011;19638;49.080;11.896;2023-05-07T10:56:32;5.35;;;4.35;;
33266;SDS011;19638;49.080;11.896;2023-05-07T11:00:41;4.80;;;4.35;;
33266;SDS011;19638;49.080;11.896;2023-05-07T11:04:54;4.97;;;4.43;;
33266;SDS011;19638;49.080;11.896;2023-05-07T11:09:23;4.97;;;4.20;;
33266;SDS011;19638;49.080;11.896;2023-05-07T11:13:42;4.22;;;3.83;;
33266;SDS011;19638;49.080;11.896;2023-05-07T11:17:56;5.78;;;4.05;;
33266;SDS011;19638;49.080;11.896;2023-05-07T11:26:45;6.18;;;4.25;;
33266;SDS011;19638;49.080;11.896;2023-05-07T11:30:50;6.85;;;4.65;;
33266;SDS011;19638;49.080;11.896;2023-05-07T11:34:56;5.40;;;4.47;;
33266;SDS011;19638;49.080;11.896;2023-05-07T11:39:04;5.22;;;4.00;;
33266;SDS011;19638;49.080;11.896;2023-05-07T11:43:10;4.80;;;4.35;;
33266;SDS011;19638;49.080;11.896;2023-05-07T11:47:18;5.10;;;4.57;;
33266;SDS011;19638;49.080;11.896;2023-05-07T11:51:29;5.57;;;4.50;;
33266;SDS011;19638;49.080;11.896;2023-05-07T11:55:37;5.38;;;4.53;;
33266;SDS011;19638;49.080;11.896;2023-05-07T11:59:43;5.20;;;4.70;;
33266;SDS011;19638;49.080;11.896;2023-05-07T12:03:52;5.28;;;4.78;;
33266;SDS011;19638;49.080;11.896;2023-05-07T12:07:57;6.05;;;4.82;;
33266;SDS011;19638;49.080;11.896;2023-05-07T12:12:04;6.65;;;4.80;;
33266;SDS011;19638;49.080;11.896;2023-05-07T12:16:08;4.95;;;4.38;;
33266;SDS011;19638;49.080;11.896;2023-05-07T12:20:13;5.95;;;4.47;;
33266;SDS011;19638;49.080;11.896;2023-05-07T12:24:19;4.53;;;4.03;;
33266;SDS011;19638;49.080;11.896;2023-05-07T12:28:24;6.00;;;4.28;;
33266;SDS011;19638;49.080;11.896;2023-05-07T12:32:27;4.53;;;4.13;;
33266;SDS011;19638;49.080;11.896;2023-05-07T12:36:36;4.75;;;4.22;;
33266;SDS011;19638;49.080;11.896;2023-05-07T12:40:40;5.40;;;3.50;;
33266;SDS011;19638;49.080;11.896;2023-05-07T12:44:52;5.53;;;4.07;;
33266;SDS011;19638;49.080;11.896;2023-05-07T12:48:55;5.85;;;4.07;;
33266;SDS011;19638;49.080;11.896;2023-05-07T12:53:07;3.85;;;3.55;;
33266;SDS011;19638;49.080;11.896;2023-05-07T12:57:18;4.70;;;3.88;;
33266;SDS011;19638;49.080;11.896;2023-05-07T13:01:28;6.88;;;3.40;;
33266;SDS011;19638;49.080;11.896;2023-05-07T13:05:32;5.03;;;3.40;;
33266;SDS011;19638;49.080;11.896;2023-05-07T13:09:36;4.45;;;3.33;;
33266;SDS011;19638;49.080;11.896;2023-05-07T13:13:40;4.03;;;3.20;;
33266;SDS011;19638;49.080;11.896;2023-05-07T13:17:46;3.03;;;2.83;;
33266;SDS011;19638;49.080;11.896;2023-05-07T13:21:49;3.22;;;2.70;;
33266;SDS011;19638;49.080;11.896;2023-05-07T13:25:52;3.20;;;2.90;;
33266;SDS011;19638;49.080;11.896;2023-05-07T13:29:57;4.53;;;3.50;;
33266;SDS011;19638;49.080;11.896;2023-05-07T13:34:01;2.53;;;2.42;;
33266;SDS011;19638;49.080;11.896;2023-05-07T13:38:05;3.63;;;2.60;;
33266;SDS011;19638;49.080;11.896;2023-05-07T13:42:11;2.67;;;2.47;;
33266;SDS011;19638;49.080;11.896;2023-05-07T13:46:16;3.22;;;2.85;;
33266;SDS011;19638;49.080;11.896;2023-05-07T13:50:22;2.50;;;2.30;;
33266;SDS011;19638;49.080;11.896;2023-05-07T13:54:28;3.03;;;2.40;;
33266;SDS011;19638;49.080;11.896;2023-05-07T13:58:31;3.25;;;2.83;;
33266;SDS011;19638;49.080;11.896;2023-05-07T14:03:01;3.13;;;2.55;;
33266;SDS011;19638;49.080;11.896;2023-05-07T14:07:08;3.38;;;2.33;;
33266;SDS011;19638;49.080;11.896;2023-05-07T14:11:11;2.38;;;2.17;;
33266;SDS011;19638;49.080;11.896;2023-05-07T14:15:19;3.67;;;2.63;;
33266;SDS011;19638;49.080;11.896;2023-05-07T14:19:22;2.78;;;2.58;;
33266;SDS011;19638;49.080;11.896;2023-05-07T14:23:27;2.78;;;2.63;;
33266;SDS011;19638;49.080;11.896;2023-05-07T14:27:31;4.40;;;2.55;;
33266;SDS011;19638;49.080;11.896;2023-05-07T14:31:35;4.38;;;3.50;;
33266;SDS011;19638;49.080;11.896;2023-05-07T14:35:48;3.35;;;2.92;;
33266;SDS011;19638;49.080;11.896;2023-05-07T14:39:53;3.33;;;3.03;;
33266;SDS011;19638;49.080;11.896;2023-05-07T14:43:56;3.58;;;3.00;;
33266;SDS011;19638;49.080;11.896;2023-05-07T14:48:00;2.97;;;2.78;;
33266;SDS011;19638;49.080;11.896;2023-05-07T14:52:05;3.58;;;3.28;;
33266;SDS011;19638;49.080;11.896;2023-05-07T14:56:16;4.47;;;3.70;;
33266;SDS011;19638;49.080;11.896;2023-05-07T15:00:19;4.05;;;3.72;;
33266;SDS011;19638;49.080;11.896;2023-05-07T15:04:29;8.45;;;4.50;;
33266;SDS011;19638;49.080;11.896;2023-05-07T15:08:32;5.28;;;4.78;;
33266;SDS011;19638;49.080;11.896;2023-05-07T15:12:37;5.50;;;4.97;;
33266;SDS011;19638;49.080;11.896;2023-05-07T15:16:41;6.80;;;5.70;;
33266;SDS011;19638;49.080;11.896;2023-05-07T15:20:45;6.32;;;5.00;;
33266;SDS011;19638;49.080;11.896;2023-05-07T15:24:48;6.32;;;5.40;;
33266;SDS011;19638;49.080;11.896;2023-05-07T15:29:00;6.88;;;5.35;;
33266;SDS011;19638;49.080;11.896;2023-05-07T15:33:08;5.88;;;5.28;;
33266;SDS011;19638;49.080;11.896;2023-05-07T15:37:12;5.80;;;5.22;;
33266;SDS011;19638;49.080;11.896;2023-05-07T15:41:17;5.95;;;5.20;;
33266;SDS011;19638;49.080;11.896;2023-05-07T15:45:23;7.00;;;5.28;;
33266;SDS011;19638;49.080;11.896;2023-05-07T15:49:27;5.55;;;4.78;;
33266;SDS011;19638;49.080;11.896;2023-05-07T15:53:34;4.60;;;4.18;;
33266;SDS011;19638;49.080;11.896;2023-05-07T15:57:37;5.57;;;4.40;;
33266;SDS011;19638;49.080;11.896;2023-05-07T16:01:42;4.95;;;4.28;;
33266;SDS011;19638;49.080;11.896;2023-05-07T16:05:48;6.72;;;4.25;;
33266;SDS011;19638;49.080;11.896;2023-05-07T16:09:53;7.28;;;4.50;;
33266;SDS011;19638;49.080;11.896;2023-05-07T16:13:58;5.45;;;4.15;;
33266;SDS011;19638;49.080;11.896;2023-05-07T16:18:03;6.35;;;4.70;;
33266;SDS011;19638;49.080;11.896;2023-05-07T16:22:09;11.07;;;4.78;;
33266;SDS011;19638;49.080;11.896;2023-05-07T16:26:19;5.82;;;4.68;;
33266;SDS011;19638;49.080;11.896;2023-05-07T16:30:22;6.63;;;5.50;;
33266;SDS011;19638;49.080;11.896;2023-05-07T16:34:27;7.00;;;5.05;;
33266;SDS011;19638;49.080;11.896;2023-05-07T16:38:33;8.52;;;5.55;;
33266;SDS011;19638;49.080;11.896;2023-05-07T16:42:36;6.88;;;5.50;;
33266;SDS011;19638;49.080;11.896;2023-05-07T16:46:39;6.78;;;5.57;;
33266;SDS011;19638;49.080;11.896;2023-05-07T16:50:44;6.03;;;5.43;;
33266;SDS011;19638;49.080;11.896;2023-05-07T16:54:50;8.23;;;5.55;;
33266;SDS011;19638;49.080;11.896;2023-05-07T16:58:53;6.00;;;5.22;;
33266;SDS011;19638;49.080;11.896;2023-05-07T17:02:56;8.50;;;6.38;;
33266;SDS011;19638;49.080;11.896;2023-05-07T17:07:01;9.75;;;6.50;;
33266;SDS011;19638;49.080;11.896;2023-05-07T17:11:05;8.18;;;6.38;;
33266;SDS011;19638;49.080;11.896;2023-05-07T17:15:09;9.75;;;6.00;;
33266;SDS011;19638;49.080;11.896;2023-05-07T17:19:15;9.52;;;7.00;;
33266;SDS011;19638;49.080;11.896;2023-05-07T17:23:20;9.02;;;6.68;;
33266;SDS011;19638;49.080;11.896;2023-05-07T17:27:27;8.88;;;6.35;;
33266;SDS011;19638;49.080;11.896;2023-05-07T17:31:33;10.27;;;6.85;;
33266;SDS011;19638;49.080;11.896;2023-05-07T17:35:36;8.77;;;6.80;;
33266;SDS011;19638;49.080;11.896;2023-05-07T17:39:41;10.60;;;7.20;;
33266;SDS011;19638;49.080;11.896;2023-05-07T17:43:44;9.40;;;7.00;;
33266;SDS011;19638;49.080;11.896;2023-05-07T17:47:47;10.65;;;7.20;;
33266;SDS011;19638;49.080;11.896;2023-05-07T17:51:53;7.93;;;6.10;;
33266;SDS011;19638;49.080;11.896;2023-05-07T17:56:01;8.30;;;6.20;;
33266;SDS011;19638;49.080;11.896;2023-05-07T18:00:05;8.50;;;6.38;;
33266;SDS011;19638;49.080;11.896;2023-05-07T18:04:10;11.98;;;6.82;;
33266;SDS011;19638;49.080;11.896;2023-05-07T18:08:13;9.48;;;6.90;;
33266;SDS011;19638;49.080;11.896;2023-05-07T18:12:22;7.65;;;6.20;;
33266;SDS011;19638;49.080;11.896;2023-05-07T18:16:28;9.88;;;7.47;;
33266;SDS011;19638;49.080;11.896;2023-05-07T18:20:31;10.43;;;7.28;;
33266;SDS011;19638;49.080;11.896;2023-05-07T18:24:34;10.48;;;6.80;;
33266;SDS011;19638;49.080;11.896;2023-05-07T18:28:42;11.05;;;7.18;;
33266;SDS011;19638;49.080;11.896;2023-05-07T18:32:47;9.93;;;6.85;;
33266;SDS011;19638;49.080;11.896;2023-05-07T18:36:51;8.52;;;6.80;;
33266;SDS011;19638;49.080;11.896;2023-05-07T18:40:59;10.57;;;7.57;;
33266;SDS011;19638;49.080;11.896;2023-05-07T18:45:06;10.55;;;6.80;;
33266;SDS011;19638;49.080;11.896;2023-05-07T18:49:10;9.63;;;7.05;;
33266;SDS011;19638;49.080;11.896;2023-05-07T18:53:20;9.52;;;7.30;;
33266;SDS011;19638;49.080;11.896;2023-05-07T18:57:24;11.95;;;7.85;;
33266;SDS011;19638;49.080;11.896;2023-05-07T19:01:31;11.60;;;7.13;;
33266;SDS011;19638;49.080;11.896;2023-05-07T19:05:38;10.35;;;7.78;;
33266;SDS011;19638;49.080;11.896;2023-05-07T19:09:41;8.88;;;6.82;;
33266;SDS011;19638;49.080;11.896;2023-05-07T19:14:04;8.88;;;7.03;;
33266;SDS011;19638;49.080;11.896;2023-05-07T19:18:09;9.13;;;7.38;;
33266;SDS011;19638;49.080;11.896;2023-05-07T19:22:13;14.52;;;8.40;;
33266;SDS011;19638;49.080;11.896;2023-05-07T19:26:21;10.80;;;7.80;;
33266;SDS011;19638;49.080;11.896;2023-05-07T19:30:25;10.32;;;7.90;;
33266;SDS011;19638;49.080;11.896;2023-05-07T19:34:32;11.75;;;8.15;;
33266;SDS011;19638;49.080;11.896;2023-05-07T19:38:39;12.35;;;8.50;;
33266;SDS011;19638;49.080;11.896;2023-05-07T19:42:42;12.15;;;8.70;;
33266;SDS011;19638;49.080;11.896;2023-05-07T19:46:45;14.55;;;8.38;;
33266;SDS011;19638;49.080;11.896;2023-05-07T19:50:50;11.27;;;7.63;;
33266;SDS011;19638;49.080;11.896;2023-05-07T19:54:54;11.57;;;7.88;;
33266;SDS011;19638;49.080;11.896;2023-05-07T19:59:01;11.57;;;8.13;;
33266;SDS011;19638;49.080;11.896;2023-05-07T20:03:04;13.77;;;7.90;;
33266;SDS011;19638;49.080;11.896;2023-05-07T20:07:11;12.32;;;8.02;;
33266;SDS011;19638;49.080;11.896;2023-05-07T20:11:17;10.00;;;7.78;;
33266;SDS011;19638;49.080;11.896;2023-05-07T20:15:25;10.25;;;8.07;;
33266;SDS011;19638;49.080;11.896;2023-05-07T20:19:28;9.60;;;7.25;;
33266;SDS011;19638;49.080;11.896;2023-05-07T20:23:35;10.75;;;7.57;;
33266;SDS011;19638;49.080;11.896;2023-05-07T20:27:39;9.50;;;7.18;;
33266;SDS011;19638;49.080;11.896;2023-05-07T20:31:43;10.68;;;7.75;;
33266;SDS011;19638;49.080;11.896;2023-05-07T20:35:47;10.68;;;7.28;;
33266;SDS011;19638;49.080;11.896;2023-05-07T20:39:54;10.10;;;7.22;;
33266;SDS011;19638;49.080;11.896;2023-05-07T20:43:58;10.52;;;6.85;;
33266;SDS011;19638;49.080;11.896;2023-05-07T20:48:01;11.18;;;7.40;;
33266;SDS011;19638;49.080;11.896;2023-05-07T20:52:06;10.30;;;6.75;;
33266;SDS011;19638;49.080;11.896;2023-05-07T20:56:10;7.90;;;6.30;;
33266;SDS011;19638;49.080;11.896;2023-05-07T21:00:14;10.45;;;6.88;;
33266;SDS011;19638;49.080;11.896;2023-05-07T21:04:20;8.60;;;7.07;;
33266;SDS011;19638;49.080;11.896;2023-05-07T21:08:25;7.22;;;6.13;;
33266;SDS011;19638;49.080;11.896;2023-05-07T21:12:31;9.60;;;7.05;;
33266;SDS011;19638;49.080;11.896;2023-05-07T21:16:34;8.13;;;6.28;;
33266;SDS011;19638;49.080;11.896;2023-05-07T21:20:41;8.50;;;7.05;;
33266;SDS011;19638;49.080;11.896;2023-05-07T21:24:44;11.55;;;6.90;;
33266;SDS011;19638;49.080;11.896;2023-05-07T21:28:51;8.55;;;6.47;;
33266;SDS011;19638;49.080;11.896;2023-05-07T21:32:57;9.98;;;6.57;;
33266;SDS011;19638;49.080;11.896;2023-05-07T21:37:00;8.25;;;6.80;;
33266;SDS011;19638;49.080;11.896;2023-05-07T21:41:06;11.68;;;6.60;;
33266;SDS011;19638;49.080;11.896;2023-05-07T21:45:11;9.30;;;6.68;;
33266;SDS011;19638;49.080;11.896;2023-05-07T21:49:17;8.27;;;5.85;;
33266;SDS011;19638;49.080;11.896;2023-05-07T21:53:24;10.32;;;6.63;;
33266;SDS011;19638;49.080;11.896;2023-05-07T21:57:30;11.90;;;6.28;;
33266;SDS011;19638;49.080;11.896;2023-05-07T22:01:36;8.48;;;6.28;;
33266;SDS011;19638;49.080;11.896;2023-05-07T22:05:40;7.93;;;5.78;;
33266;SDS011;19638;49.080;11.896;2023-05-07T22:09:44;6.55;;;5.45;;
33266;SDS011;19638;49.080;11.896;2023-05-07T22:13:49;10.27;;;6.30;;
33266;SDS011;19638;49.080;11.896;2023-05-07T22:17:58;8.07;;;6.00;;
33266;SDS011;19638;49.080;11.896;2023-05-07T22:22:01;9.93;;;6.85;;
33266;SDS011;19638;49.080;11.896;2023-05-07T22:26:08;7.80;;;5.85;;
33266;SDS011;19638;49.080;11.896;2023-05-07T22:30:12;8.02;;;5.72;;
33266;SDS011;19638;49.080;11.896;2023-05-07T22:34:20;7.82;;;5.85;;
33266;SDS011;19638;49.080;11.896;2023-05-07T22:38:23;9.73;;;6.15;;
33266;SDS011;19638;49.080;11.896;2023-05-07T22:42:26;10.20;;;6.15;;
33266;SDS011;19638;49.080;11.896;2023-05-07T22:46:33;8.95;;;5.88;;
33266;SDS011;19638;49.080;11.896;2023-05-07T22:50:37;7.65;;;5.57;;
33266;SDS011;19638;49.080;11.896;2023-05-07T22:54:43;8.95;;;6.05;;
33266;SDS011;19638;49.080;11.896;2023-05-07T22:58:46;7.63;;;6.07;;
33266;SDS011;19638;49.080;11.896;2023-05-07T23:02:49;8.23;;;6.65;;
33266;SDS011;19638;49.080;11.896;2023-05-07T23:06:57;7.25;;;6.13;;
33266;SDS011;19638;49.080;11.896;2023-05-07T23:11:01;7.90;;;5.95;;
33266;SDS011;19638;49.080;11.896;2023-05-07T23:15:04;9.02;;;6.78;;
33266;SDS011;19638;49.080;11.896;2023-05-07T23:19:08;7.53;;;6.72;;
33266;SDS011;19638;49.080;11.896;2023-05-07T23:23:13;10.55;;;7.35;;
33266;SDS011;19638;49.080;11.896;2023-05-07T23:27:19;11.65;;;7.40;;
33266;SDS011;19638;49.080;11.896;2023-05-07T23:31:23;8.40;;;6.53;;
33266;SDS011;19638;49.080;11.896;2023-05-07T23:35:29;11.93;;;7.38;;
33266;SDS011;19638;49.080;11.896;2023-05-07T23:39:33;13.13;;;7.43;;
33266;SDS011;19638;49.080;11.896;2023-05-07T23:43:36;10.57;;;7.50;;
33266;SDS011;19638;49.080;11.896;2023-05-07T23:47:39;9.80;;;7.20;;
33266;SDS011;19638;49.080;11.896;2023-05-07T23:51:42;9.45;;;7.50;;
33266;SDS011;19638;49.080;11.896;2023-05-07T23:55:47;10.88;;;7.20;;
33266;SDS011;19638;49.080;11.896;2023-05-07T23:59:53;9.93;;;7.30;;
